Terminal Aerodrome Forecast
Issued by NWS

Home | Current Version | Previous Version | Graphics & Text | Print | Product List | Glossary On
Versions: 1 2 3 4 5 6 7 8 9 10 11 12 13 14 15 16 17 18 19 20 21 22 23 24 25 26 27 28 29 30 31 32 33 34 35 36 37 38 39 40 41 42 43 44 45 46
722
FTUS43 KGRB 161728
TAFATW
TAF
KATW 161728Z 1618/1718 36008KT P6SM BKN028
     FM162200 04004KT P6SM SCT030 BKN200
     FM170500 10005KT P6SM SCT022 OVC100
     FM170800 16008KT P6SM BKN020 OVC120
     FM171500 17013KT P6SM BKN015 OVC060=

USA.gov is the U.S. government's official web portal to all federal, state and local government web resources and services.